createdAt,value
2024-03-24T00:00:13.134Z,85.4161
2024-03-24T00:01:16.161Z,86.0541
2024-03-24T00:02:19.195Z,85.3435
2024-03-24T00:03:22.215Z,85.5434
2024-03-24T00:04:25.288Z,84.6377
2024-03-24T00:05:28.323Z,85.1292
2024-03-24T00:06:31.367Z,85.2150
2024-03-24T00:07:34.396Z,84.4533
2024-03-24T00:08:37.442Z,84.6349
2024-03-24T00:09:40.495Z,85.2721
2024-03-24T00:10:43.533Z,84.3977
2024-03-24T00:11:46.574Z,84.1206
2024-03-24T00:12:49.599Z,84.4717
2024-03-24T00:13:52.652Z,84.8517
2024-03-24T00:14:55.686Z,84.6865
2024-03-24T00:15:59.066Z,85.2896
2024-03-24T00:17:02.121Z,84.4698
2024-03-24T00:18:05.126Z,84.0630
2024-03-24T00:19:08.219Z,84.8274
2024-03-24T00:20:11.252Z,84.2252
2024-03-24T00:21:14.261Z,84.7600
2024-03-24T00:22:17.550Z,83.8532
2024-03-24T00:23:20.590Z,84.0709
2024-03-24T00:24:23.728Z,82.6279
2024-03-24T00:25:26.734Z,82.9869
2024-03-24T00:26:29.769Z,82.6409
2024-03-24T00:27:32.745Z,82.7042
2024-03-24T00:28:35.921Z,84.0085
2024-03-24T00:29:38.939Z,83.7898
2024-03-24T00:30:41.900Z,84.7196
2024-03-24T00:31:44.983Z,83.7291
2024-03-24T00:32:48.018Z,83.8333
2024-03-24T00:33:51.040Z,83.0827
2024-03-24T00:34:54.410Z,82.8081
2024-03-24T00:35:57.608Z,82.8271
2024-03-24T00:37:00.797Z,82.6923
2024-03-24T00:38:03.825Z,83.9269
2024-03-24T00:39:06.883Z,83.9395
2024-03-24T00:40:09.918Z,83.5209
2024-03-24T00:41:12.909Z,84.2825
2024-03-24T00:42:16.004Z,83.5043
2024-03-24T00:43:19.058Z,83.8147
2024-03-24T00:44:22.099Z,83.6222
2024-03-24T00:45:25.146Z,84.6605
2024-03-24T00:46:28.180Z,84.3868
2024-03-24T00:47:31.244Z,84.5903
2024-03-24T00:48:34.247Z,85.3314
2024-03-24T00:49:37.244Z,84.1788
2024-03-24T00:50:40.347Z,84.3737
2024-03-24T00:51:43.362Z,84.2150
2024-03-24T00:52:46.669Z,84.4616
2024-03-24T00:53:49.766Z,84.2340
2024-03-24T00:54:52.787Z,84.5797
2024-03-24T00:55:55.844Z,84.1713
2024-03-24T00:56:58.901Z,84.2504
2024-03-24T00:58:02.275Z,84.8102
2024-03-24T00:59:05.286Z,85.4303
2024-03-24T01:00:08.324Z,85.8299
2024-03-24T01:01:11.391Z,85.8885
2024-03-24T01:02:14.355Z,85.8064
2024-03-24T01:03:17.451Z,85.5589
2024-03-24T01:04:20.507Z,85.6575
2024-03-24T01:05:23.556Z,86.4786
2024-03-24T01:06:26.601Z,85.9807
2024-03-24T01:07:29.676Z,86.1523
2024-03-24T01:08:32.724Z,85.9980
2024-03-24T01:09:35.712Z,85.8997
2024-03-24T01:10:38.752Z,86.1728
2024-03-24T01:11:41.900Z,85.8523
2024-03-24T01:12:44.883Z,86.2296
2024-03-24T01:13:47.900Z,86.7913
2024-03-24T01:14:50.904Z,86.7393
2024-03-24T01:15:53.930Z,86.9846
2024-03-24T01:16:56.893Z,87.3467
2024-03-24T01:18:00.015Z,87.2201
2024-03-24T01:19:03.094Z,86.7573
2024-03-24T01:20:06.073Z,87.1183
2024-03-24T01:21:09.150Z,87.4066
2024-03-24T01:22:12.202Z,87.5900
2024-03-24T01:23:15.198Z,87.6343
2024-03-24T01:24:18.250Z,87.9149
2024-03-24T01:25:21.292Z,87.7000
2024-03-24T01:26:24.392Z,87.4176
2024-03-24T01:27:27.422Z,88.0027
2024-03-24T01:28:30.542Z,87.9224
2024-03-24T01:29:33.532Z,87.8264
2024-03-24T01:30:36.581Z,88.0344
2024-03-24T01:31:39.652Z,87.9266
2024-03-24T01:32:42.652Z,87.7467
2024-03-24T01:33:45.673Z,87.4570
2024-03-24T01:34:48.967Z,87.8350
2024-03-24T01:35:52.045Z,87.9667
2024-03-24T01:36:55.061Z,88.7114
2024-03-24T01:37:58.062Z,89.0532
2024-03-24T01:39:01.132Z,89.0388
2024-03-24T01:40:04.167Z,89.2659
2024-03-24T01:41:07.189Z,89.2944
2024-03-24T01:42:10.196Z,88.7455
2024-03-24T01:43:13.298Z,89.1314
2024-03-24T01:44:16.342Z,89.7111
2024-03-24T01:45:19.353Z,88.5950
2024-03-24T01:46:22.462Z,89.2172
2024-03-24T01:47:25.486Z,89.3053
2024-03-24T01:48:28.493Z,89.8806
2024-03-24T01:49:31.675Z,89.8857
2024-03-24T01:50:34.703Z,90.2897
2024-03-24T01:51:37.684Z,90.9420
2024-03-24T01:52:40.715Z,90.8970
2024-03-24T01:53:43.684Z,90.6556
2024-03-24T01:54:46.746Z,90.4801
2024-03-24T01:55:49.763Z,90.8375
2024-03-24T01:56:52.821Z,90.9976
2024-03-24T01:57:55.867Z,91.2617
2024-03-24T01:58:58.915Z,91.4615
2024-03-24T02:00:01.915Z,91.0997
2024-03-24T02:01:04.936Z,91.1284
2024-03-24T02:02:07.946Z,91.0714
2024-03-24T02:03:11.023Z,91.1002
2024-03-24T02:04:14.132Z,91.0703
2024-03-24T02:05:17.088Z,91.2311
2024-03-24T02:06:20.131Z,91.6107
2024-03-24T02:07:23.166Z,92.0481
2024-03-24T02:08:26.190Z,91.7590
2024-03-24T02:09:29.234Z,91.6138
2024-03-24T02:10:32.275Z,92.1408
2024-03-24T02:11:35.318Z,92.3400
2024-03-24T02:12:38.312Z,92.2753
2024-03-24T02:13:41.426Z,92.6370
2024-03-24T02:14:44.441Z,92.2554
2024-03-24T02:15:47.467Z,91.9553
2024-03-24T02:16:50.535Z,91.9532
2024-03-24T02:17:57.815Z,92.3781
2024-03-24T02:18:55.646Z,92.3664
2024-03-24T02:19:58.644Z,92.3382
2024-03-24T02:21:01.726Z,92.5224
2024-03-24T02:22:04.755Z,92.5594
2024-03-24T02:23:07.914Z,92.6571
2024-03-24T02:24:10.907Z,92.9003
2024-03-24T02:25:13.920Z,92.8428
2024-03-24T02:26:17.267Z,93.0830
2024-03-24T02:27:20.344Z,93.1151
2024-03-24T02:28:23.384Z,93.2030
2024-03-24T02:29:26.674Z,93.3204
2024-03-24T02:30:26.588Z,93.2932
2024-03-24T02:31:29.577Z,93.3886
2024-03-24T02:32:32.669Z,93.4459
2024-03-24T02:33:35.703Z,93.7745
2024-03-24T02:34:38.723Z,93.9673
2024-03-24T02:35:41.726Z,94.0094
2024-03-24T02:36:44.753Z,94.0546
2024-03-24T02:37:47.799Z,94.0374
2024-03-24T02:38:50.844Z,94.2571
2024-03-24T02:39:53.952Z,94.3829
2024-03-24T02:40:56.985Z,94.5496
2024-03-24T02:42:00.072Z,94.6384
2024-03-24T02:43:03.109Z,94.6521
2024-03-24T02:44:06.149Z,94.5863
2024-03-24T02:45:09.244Z,94.5816
2024-03-24T02:46:12.273Z,94.5169
2024-03-24T02:47:15.488Z,94.5096
2024-03-24T02:48:18.532Z,94.6930
2024-03-24T02:49:21.554Z,94.8360
2024-03-24T02:50:24.586Z,94.8472
2024-03-24T02:51:27.906Z,94.8045
2024-03-24T02:52:30.993Z,94.8454
2024-03-24T02:53:34.068Z,94.8706
2024-03-24T02:54:37.136Z,94.7723
2024-03-24T02:55:40.136Z,94.6944
2024-03-24T02:56:43.154Z,94.5369
2024-03-24T02:57:46.353Z,94.5028
2024-03-24T02:58:49.351Z,94.6904
2024-03-24T02:59:52.617Z,94.6117
2024-03-24T03:00:55.624Z,94.6947
2024-03-24T03:01:58.677Z,94.8120
2024-03-24T03:03:01.712Z,94.9471
2024-03-24T03:04:04.708Z,94.8219
2024-03-24T03:05:07.811Z,94.6994
2024-03-24T03:06:11.170Z,94.7395
2024-03-24T03:07:14.174Z,94.5777
2024-03-24T03:08:17.195Z,94.4328
2024-03-24T03:09:20.285Z,94.4465
2024-03-24T03:10:23.324Z,94.6296
2024-03-24T03:11:26.341Z,94.6470
2024-03-24T03:12:29.421Z,94.7815
2024-03-24T03:13:32.409Z,94.9659
2024-03-24T03:14:35.478Z,94.8309
2024-03-24T03:15:38.687Z,94.4711
2024-03-24T03:16:41.692Z,93.9632
2024-03-24T03:17:44.673Z,93.6000
2024-03-24T03:18:47.963Z,93.6002
2024-03-24T03:19:50.990Z,93.7377
2024-03-24T03:20:54.043Z,94.0011
2024-03-24T03:21:57.042Z,94.0884
2024-03-24T03:23:00.144Z,94.0406
2024-03-24T03:24:03.159Z,94.3216
2024-03-24T03:25:06.205Z,94.1518
2024-03-24T03:26:09.240Z,93.8926
2024-03-24T03:27:12.229Z,93.6378
2024-03-24T03:28:15.333Z,93.9170
2024-03-24T03:29:18.364Z,93.9937
2024-03-24T03:30:21.443Z,94.1164
2024-03-24T03:31:24.443Z,94.2127
2024-03-24T03:32:27.498Z,94.3082
2024-03-24T03:33:30.555Z,94.4380
2024-03-24T03:34:33.565Z,94.4672
2024-03-24T03:35:36.604Z,94.5745
2024-03-24T03:36:39.640Z,94.7203
2024-03-24T03:37:42.735Z,94.9329
2024-03-24T03:38:45.818Z,95.2312
2024-03-24T03:39:48.882Z,95.4187
2024-03-24T03:40:51.901Z,95.5118
2024-03-24T03:41:55.166Z,95.6842
2024-03-24T03:42:58.189Z,95.6507
2024-03-24T03:44:01.255Z,95.5272
2024-03-24T03:45:04.281Z,95.5263
2024-03-24T03:46:07.320Z,95.5840
2024-03-24T03:47:10.306Z,95.6574
2024-03-24T03:48:13.398Z,95.7117
2024-03-24T03:49:16.523Z,95.7893
2024-03-24T03:50:19.574Z,95.8585
2024-03-24T03:51:22.618Z,95.8789
2024-03-24T03:52:25.668Z,95.9254
2024-03-24T03:53:28.686Z,96.0169
2024-03-24T03:54:31.731Z,96.0633
2024-03-24T03:55:34.750Z,96.0920
2024-03-24T03:56:37.861Z,96.1147
2024-03-24T03:57:40.867Z,96.1281
2024-03-24T03:58:43.891Z,96.0843
2024-03-24T03:59:46.987Z,96.0366
2024-03-24T04:00:49.949Z,95.9887
2024-03-24T04:01:52.931Z,95.8530
2024-03-24T04:02:55.972Z,95.7319
2024-03-24T04:03:58.942Z,95.6733
2024-03-24T04:05:02.044Z,95.6036
2024-03-24T04:06:05.067Z,95.4955
2024-03-24T04:07:08.119Z,95.4957
2024-03-24T04:08:11.186Z,95.5203
2024-03-24T04:09:14.213Z,95.5674
2024-03-24T04:10:17.395Z,95.6065
2024-03-24T04:11:20.420Z,95.6448
2024-03-24T04:12:23.472Z,95.7131
2024-03-24T04:13:26.775Z,95.7398
2024-03-24T04:14:29.795Z,95.7128
2024-03-24T04:15:32.781Z,95.6518
2024-03-24T04:16:35.970Z,95.4841
2024-03-24T04:17:38.953Z,95.3312
2024-03-24T04:18:42.023Z,95.2521
2024-03-24T04:19:45.028Z,95.2011
2024-03-24T04:20:48.294Z,95.1629
2024-03-24T04:21:51.343Z,94.8945
2024-03-24T04:22:54.373Z,94.7669
2024-03-24T04:23:57.423Z,94.6502
2024-03-24T04:25:00.528Z,94.6805
2024-03-24T04:26:03.525Z,94.6786
2024-03-24T04:27:06.544Z,94.5932
2024-03-24T04:28:09.557Z,94.5881
2024-03-24T04:29:12.562Z,94.6719
2024-03-24T04:30:15.682Z,94.8839
2024-03-24T04:31:18.689Z,94.9061
2024-03-24T04:32:21.745Z,94.8764
2024-03-24T04:33:24.755Z,94.8302
2024-03-24T04:34:27.766Z,94.8601
2024-03-24T04:35:30.857Z,94.8586
2024-03-24T04:36:34.043Z,94.9185
2024-03-24T04:37:37.046Z,95.0464
2024-03-24T04:38:40.059Z,95.1772
2024-03-24T04:39:43.326Z,95.3207
2024-03-24T04:40:46.396Z,95.4653
2024-03-24T04:41:49.475Z,95.5125
2024-03-24T04:42:52.643Z,95.5219
2024-03-24T04:43:55.782Z,95.4570
2024-03-24T04:44:58.843Z,95.4428
2024-03-24T04:46:01.894Z,95.3980
2024-03-24T04:47:04.919Z,95.5232
2024-03-24T04:48:07.955Z,95.6019
2024-03-24T04:49:11.016Z,95.7057
2024-03-24T04:50:14.042Z,95.7753
2024-03-24T04:51:17.143Z,95.8791
2024-03-24T04:52:20.184Z,95.9759
2024-03-24T04:53:23.252Z,96.0526
2024-03-24T04:54:26.515Z,96.1184
2024-03-24T04:55:29.586Z,96.1007
2024-03-24T04:56:32.612Z,96.0226
2024-03-24T04:57:35.632Z,96.0382
2024-03-24T04:58:38.691Z,96.0997
2024-03-24T04:59:41.784Z,96.1777
2024-03-24T05:00:44.868Z,96.1971
2024-03-24T05:01:47.884Z,96.1104
2024-03-24T05:02:50.943Z,96.0174
2024-03-24T05:03:53.961Z,95.8250
2024-03-24T05:04:56.956Z,95.6413
2024-03-24T05:06:00.049Z,95.7019
2024-03-24T05:07:03.088Z,95.8109
2024-03-24T05:08:06.114Z,95.8762
2024-03-24T05:09:09.123Z,96.0600
2024-03-24T05:10:12.219Z,96.2366
2024-03-24T05:11:15.203Z,96.3072
2024-03-24T05:12:18.351Z,96.4248
2024-03-24T05:13:21.343Z,96.5199
2024-03-24T05:14:24.387Z,96.5622
2024-03-24T05:15:27.455Z,96.6083
2024-03-24T05:16:30.489Z,96.6686
2024-03-24T05:17:33.631Z,96.7017
2024-03-24T05:18:36.800Z,96.6791
2024-03-24T05:19:39.834Z,96.6562
2024-03-24T05:20:42.869Z,96.6292
2024-03-24T05:21:45.935Z,96.6256
2024-03-24T05:22:49.036Z,96.6583
2024-03-24T05:23:52.104Z,96.6828
2024-03-24T05:24:55.362Z,96.7141
2024-03-24T05:25:58.365Z,96.7674
2024-03-24T05:27:01.465Z,96.8119
2024-03-24T05:28:04.543Z,96.8557
2024-03-24T05:29:07.572Z,96.8686
2024-03-24T05:30:10.643Z,96.8138
2024-03-24T05:31:13.919Z,96.7771
2024-03-24T05:32:16.952Z,96.7614
2024-03-24T05:33:19.992Z,96.7269
2024-03-24T05:34:23.032Z,96.7049
2024-03-24T05:35:26.068Z,96.6768
2024-03-24T05:36:28.561Z,96.6796
2024-03-24T05:37:30.997Z,96.6578
2024-03-24T05:38:33.593Z,96.6335
2024-03-24T05:39:36.049Z,96.5971
2024-03-24T05:40:38.533Z,96.5914
2024-03-24T05:41:41.109Z,96.5893
2024-03-24T05:42:43.624Z,96.5691
2024-03-24T05:43:46.237Z,96.5259
2024-03-24T05:44:48.727Z,96.4684
2024-03-24T05:45:51.191Z,96.4321
2024-03-24T05:46:53.771Z,96.4017
2024-03-24T05:47:56.225Z,96.4176
2024-03-24T05:48:58.701Z,96.4416
2024-03-24T05:50:01.198Z,96.4768
2024-03-24T05:51:03.699Z,96.5332
2024-03-24T05:52:06.161Z,96.5917
2024-03-24T05:53:08.808Z,96.6118
2024-03-24T05:54:11.315Z,96.5109
2024-03-24T05:55:13.756Z,96.3660
2024-03-24T05:56:16.307Z,96.2790
2024-03-24T05:57:18.792Z,96.2526
2024-03-24T05:58:21.255Z,96.1272
2024-03-24T05:59:23.896Z,96.0630
2024-03-24T06:00:26.505Z,95.9580
2024-03-24T06:01:28.922Z,95.8288
2024-03-24T06:02:31.360Z,95.8192
2024-03-24T06:03:34.087Z,95.7381
2024-03-24T06:04:36.482Z,95.5160
2024-03-24T06:05:38.900Z,95.4042
2024-03-24T06:06:41.353Z,95.2960
2024-03-24T06:07:43.811Z,95.1286
2024-03-24T06:08:46.375Z,95.0268
2024-03-24T06:09:48.791Z,94.7942
2024-03-24T06:10:51.514Z,94.3834
2024-03-24T06:11:54.033Z,94.2810
2024-03-24T06:12:56.440Z,94.3107
2024-03-24T06:13:58.960Z,94.4917
2024-03-24T06:15:01.382Z,94.3296
2024-03-24T06:16:03.832Z,93.7631
2024-03-24T06:17:06.257Z,93.5298
2024-03-24T06:18:08.945Z,93.4442
2024-03-24T06:19:14.213Z,93.3912
2024-03-24T06:20:13.735Z,93.7207
2024-03-24T06:21:16.157Z,93.6853
2024-03-24T06:22:18.574Z,93.6803
2024-03-24T06:23:21.022Z,93.6561
2024-03-24T06:24:23.461Z,93.2461
2024-03-24T06:25:25.911Z,93.2086
2024-03-24T06:26:28.474Z,93.0019
2024-03-24T06:27:30.925Z,92.3303
2024-03-24T06:28:33.603Z,91.9735
2024-03-24T06:29:36.047Z,91.9825
2024-03-24T06:30:38.667Z,91.5173
2024-03-24T06:31:43.842Z,91.7329
2024-03-24T06:32:44.808Z,91.2584
2024-03-24T06:33:47.277Z,91.2519
2024-03-24T06:34:49.713Z,91.5383
2024-03-24T06:35:52.311Z,90.9546
2024-03-24T06:36:54.718Z,90.3756
2024-03-24T06:37:57.179Z,90.7880
2024-03-24T06:38:59.604Z,90.7671
2024-03-24T06:40:02.031Z,91.0557
2024-03-24T06:41:04.479Z,91.2536
2024-03-24T06:42:07.027Z,90.6839
2024-03-24T06:43:09.521Z,90.7715
2024-03-24T06:44:11.914Z,90.4324
2024-03-24T06:45:14.382Z,90.6499
2024-03-24T06:46:16.958Z,90.3533
2024-03-24T06:47:19.398Z,89.9161
2024-03-24T06:48:21.865Z,89.7696
2024-03-24T06:49:24.303Z,90.0638
2024-03-24T06:50:26.874Z,89.3695
2024-03-24T06:51:29.312Z,89.0180
2024-03-24T06:52:32.040Z,89.5975
2024-03-24T06:53:34.800Z,89.8406
2024-03-24T06:54:37.370Z,89.8007
2024-03-24T06:55:39.794Z,89.9485
2024-03-24T06:56:42.554Z,90.6425
2024-03-24T06:57:45.284Z,89.7691
2024-03-24T06:58:47.745Z,89.5819
2024-03-24T06:59:50.182Z,89.7028
2024-03-24T07:00:52.618Z,89.9485
2024-03-24T07:01:55.200Z,89.8525
2024-03-24T07:02:57.638Z,90.1413
2024-03-24T07:04:00.299Z,90.2933
2024-03-24T07:05:02.760Z,90.5332
2024-03-24T07:06:05.429Z,90.5534
2024-03-24T07:07:07.842Z,90.8078
2024-03-24T07:08:10.279Z,90.7218
2024-03-24T07:09:12.742Z,90.6217
2024-03-24T07:10:15.183Z,89.8168
2024-03-24T07:11:17.762Z,90.0295
2024-03-24T07:12:20.189Z,90.8954
2024-03-24T07:13:22.830Z,90.1314
2024-03-24T07:14:25.272Z,90.0429
2024-03-24T07:15:27.741Z,89.4271
2024-03-24T07:16:30.199Z,89.0678
2024-03-24T07:17:32.621Z,89.1395
2024-03-24T07:18:35.041Z,88.3007
2024-03-24T07:19:37.601Z,88.9703
2024-03-24T07:20:40.040Z,87.8830
2024-03-24T07:21:42.448Z,87.1406
2024-03-24T07:22:44.940Z,87.6145
2024-03-24T07:23:47.385Z,86.6453
2024-03-24T07:24:49.930Z,86.6292
2024-03-24T07:25:52.632Z,86.6839
2024-03-24T07:26:55.133Z,85.7341
2024-03-24T07:27:58.069Z,86.2452
2024-03-24T07:29:01.124Z,86.1747
2024-03-24T07:30:04.161Z,86.3641
2024-03-24T07:31:07.180Z,86.5916
2024-03-24T07:32:10.231Z,86.6161
2024-03-24T07:33:13.410Z,86.9703
2024-03-24T07:34:16.434Z,86.4774
2024-03-24T07:35:19.486Z,87.0460
2024-03-24T07:36:22.509Z,87.0631
2024-03-24T07:37:25.520Z,86.9803
2024-03-24T07:38:28.543Z,86.9806
2024-03-24T07:39:31.576Z,85.9866
2024-03-24T07:40:34.871Z,84.6597
2024-03-24T07:41:37.914Z,84.5265
2024-03-24T07:42:43.515Z,84.9301
2024-03-24T07:43:44.061Z,83.9174
2024-03-24T07:44:47.111Z,84.0738
2024-03-24T07:45:50.127Z,84.6020
2024-03-24T07:46:53.226Z,85.0066
2024-03-24T07:47:56.258Z,84.1410
2024-03-24T07:48:59.298Z,84.9777
2024-03-24T07:50:02.335Z,85.0229
2024-03-24T07:51:05.342Z,84.5346
2024-03-24T07:52:08.361Z,84.9765
2024-03-24T07:53:11.390Z,85.7652
2024-03-24T07:54:14.526Z,85.5947
2024-03-24T07:55:17.584Z,84.4111
2024-03-24T07:56:20.557Z,84.3670
2024-03-24T07:57:23.831Z,83.7236
2024-03-24T07:58:27.053Z,84.1515
2024-03-24T07:59:30.198Z,84.7500
2024-03-24T08:00:33.253Z,84.9989
2024-03-24T08:01:36.305Z,84.2273
2024-03-24T08:02:39.387Z,83.8440
2024-03-24T08:03:42.381Z,84.5730
2024-03-24T08:04:45.471Z,85.2239
2024-03-24T08:05:48.548Z,84.2196
2024-03-24T08:06:51.630Z,82.9057
2024-03-24T08:07:56.440Z,82.5534
2024-03-24T08:08:56.422Z,81.8310
2024-03-24T08:09:59.651Z,79.9068
2024-03-24T08:11:02.703Z,78.8179
2024-03-24T08:12:05.831Z,79.0047
2024-03-24T08:13:08.841Z,79.9649
2024-03-24T08:14:11.936Z,79.3745
2024-03-24T08:15:14.953Z,78.6828
2024-03-24T08:16:17.965Z,78.5278
2024-03-24T08:17:21.267Z,78.7291
2024-03-24T08:18:24.301Z,78.7704
2024-03-24T08:19:27.341Z,81.0154
2024-03-24T08:20:30.431Z,79.8316
2024-03-24T08:21:33.522Z,78.7014
2024-03-24T08:22:36.804Z,77.5535
2024-03-24T08:23:39.909Z,78.0781
2024-03-24T08:24:42.928Z,79.2590
2024-03-24T08:25:45.896Z,78.8067
2024-03-24T08:26:48.968Z,79.8127
2024-03-24T08:27:51.981Z,79.5962
2024-03-24T08:28:55.007Z,79.1347
2024-03-24T08:29:58.052Z,76.2693
2024-03-24T08:31:01.061Z,76.5330
2024-03-24T08:32:04.074Z,75.9930
2024-03-24T08:33:07.181Z,74.6819
2024-03-24T08:34:10.220Z,74.1279
2024-03-24T08:35:13.221Z,74.6893
2024-03-24T08:36:16.629Z,73.3934
2024-03-24T08:37:19.696Z,74.7718
2024-03-24T08:38:22.869Z,75.9615
2024-03-24T08:39:25.889Z,76.3065
2024-03-24T08:40:31.120Z,77.8530
2024-03-24T08:41:31.911Z,77.1189
2024-03-24T08:42:34.904Z,76.3372
2024-03-24T08:43:37.899Z,76.2963
2024-03-24T08:44:40.958Z,76.2715
2024-03-24T08:45:43.994Z,76.1820
2024-03-24T08:46:47.043Z,75.9578
2024-03-24T08:47:50.058Z,75.9305
2024-03-24T08:48:53.087Z,75.6041
2024-03-24T08:49:56.147Z,75.9681
2024-03-24T08:50:59.126Z,75.6909
2024-03-24T08:52:02.253Z,75.3980
2024-03-24T08:53:05.258Z,76.5710
2024-03-24T08:54:08.567Z,78.4052
2024-03-24T08:55:11.704Z,77.2448
2024-03-24T08:56:14.700Z,77.8286
2024-03-24T08:57:17.736Z,78.6451
2024-03-24T08:58:20.800Z,78.9934
2024-03-24T08:59:23.996Z,78.8312
2024-03-24T09:00:27.190Z,78.7078
2024-03-24T09:01:30.283Z,78.7676
2024-03-24T09:02:33.503Z,77.9646
2024-03-24T09:03:36.600Z,78.1307
2024-03-24T09:04:39.690Z,78.4029
2024-03-24T09:05:42.756Z,77.5601
2024-03-24T09:06:45.769Z,78.6822
2024-03-24T09:07:48.817Z,76.4969
2024-03-24T09:08:51.865Z,76.2395
2024-03-24T09:09:54.893Z,76.6652
2024-03-24T09:10:57.888Z,74.6036
2024-03-24T09:12:01.046Z,74.7886
2024-03-24T09:13:04.060Z,73.8981
2024-03-24T09:14:07.076Z,73.5911
2024-03-24T09:15:10.267Z,73.7674
2024-03-24T09:16:13.239Z,72.0602
2024-03-24T09:17:16.392Z,70.3862
2024-03-24T09:18:19.495Z,70.1023
2024-03-24T09:19:22.548Z,71.3108
2024-03-24T09:20:25.620Z,69.0763
2024-03-24T09:21:28.643Z,68.5732
2024-03-24T09:22:31.657Z,68.6291
2024-03-24T09:23:34.706Z,67.4694
2024-03-24T09:24:37.752Z,65.8775
2024-03-24T09:25:40.772Z,64.7251
2024-03-24T09:26:43.822Z,64.9625
2024-03-24T09:27:46.869Z,63.0308
2024-03-24T09:28:49.889Z,61.9690
2024-03-24T09:29:52.989Z,61.8218
2024-03-24T09:30:56.033Z,63.1488
2024-03-24T09:31:59.075Z,62.4229
2024-03-24T09:33:02.092Z,62.4790
2024-03-24T09:34:05.354Z,63.9400
2024-03-24T09:35:13.272Z,63.5434
2024-03-24T09:36:10.583Z,62.2614
2024-03-24T09:37:13.575Z,62.9727
2024-03-24T09:38:16.856Z,64.8736
2024-03-24T09:39:19.962Z,65.2848
2024-03-24T09:40:23.054Z,64.4054
2024-03-24T09:41:26.096Z,67.4653
2024-03-24T09:42:29.100Z,69.1978
2024-03-24T09:43:32.160Z,68.3543
2024-03-24T09:44:35.234Z,67.1338
2024-03-24T09:45:38.260Z,66.4376
2024-03-24T09:46:41.242Z,66.8486
2024-03-24T09:47:44.301Z,66.7692
2024-03-24T09:48:47.301Z,67.5652
2024-03-24T09:49:50.319Z,68.2614
2024-03-24T09:50:53.393Z,65.6920
2024-03-24T09:51:56.452Z,66.1712
2024-03-24T09:52:59.489Z,64.7512
2024-03-24T09:54:02.553Z,64.8538
2024-03-24T09:55:05.580Z,63.9796
2024-03-24T09:56:08.608Z,63.6925
2024-03-24T09:57:11.663Z,62.2677
2024-03-24T09:58:17.214Z,63.6568
2024-03-24T09:59:17.462Z,63.3122
2024-03-24T10:00:20.724Z,63.3014
2024-03-24T10:01:23.826Z,62.5676
2024-03-24T10:02:26.845Z,60.7142
2024-03-24T10:03:29.922Z,62.4708
2024-03-24T10:04:32.922Z,61.2489
2024-03-24T10:05:35.981Z,62.0671
2024-03-24T10:06:38.996Z,62.3332
2024-03-24T10:07:42.053Z,63.4352
2024-03-24T10:08:45.104Z,63.9397
2024-03-24T10:09:48.187Z,63.4594
2024-03-24T10:10:51.163Z,64.2343
2024-03-24T10:11:54.314Z,65.7893
2024-03-24T10:12:57.334Z,66.0098
2024-03-24T10:14:00.364Z,64.8116
2024-03-24T10:15:03.389Z,65.0947
2024-03-24T10:16:06.400Z,65.4283
2024-03-24T10:17:09.433Z,65.8994
2024-03-24T10:18:09.652Z,65.8977
2024-03-24T10:19:12.697Z,66.2924
2024-03-24T10:20:15.746Z,66.0698
2024-03-24T10:21:18.741Z,67.3614
2024-03-24T10:22:22.090Z,68.4738
2024-03-24T10:23:25.100Z,70.9372
2024-03-24T10:24:28.140Z,71.5685
2024-03-24T10:25:31.198Z,72.1417
2024-03-24T10:26:34.269Z,73.0616
2024-03-24T10:27:37.297Z,73.9326
2024-03-24T10:28:40.313Z,73.8382
2024-03-24T10:29:43.429Z,74.6045
2024-03-24T10:30:46.445Z,75.4402
2024-03-24T10:31:52.731Z,74.8127
2024-03-24T10:32:52.843Z,75.1203
2024-03-24T10:33:55.848Z,74.2506
2024-03-24T10:34:58.858Z,73.6029
2024-03-24T10:36:02.032Z,70.8879
2024-03-24T10:37:05.041Z,69.4369
2024-03-24T10:38:08.189Z,69.9174
2024-03-24T10:39:11.242Z,70.0199
2024-03-24T10:40:14.371Z,70.0059
2024-03-24T10:41:17.420Z,69.1909
2024-03-24T10:42:20.459Z,67.3311
2024-03-24T10:43:23.525Z,66.6461
2024-03-24T10:44:26.502Z,65.0479
2024-03-24T10:45:29.542Z,66.5408
2024-03-24T10:46:32.579Z,67.2087
2024-03-24T10:47:35.712Z,66.6061
2024-03-24T10:48:38.730Z,66.7293
2024-03-24T10:49:41.789Z,67.6716
2024-03-24T10:50:44.814Z,65.3343
2024-03-24T10:51:47.855Z,64.1604
2024-03-24T10:52:53.250Z,62.8422
2024-03-24T10:53:53.318Z,64.1531
2024-03-24T10:54:56.348Z,61.1688
2024-03-24T10:55:59.379Z,61.7348
2024-03-24T10:57:02.394Z,61.4601
2024-03-24T10:58:05.413Z,61.2255
2024-03-24T10:59:11.307Z,63.1069
2024-03-24T11:00:08.717Z,66.0509
2024-03-24T11:01:11.999Z,66.2134
2024-03-24T11:02:15.077Z,68.3889
2024-03-24T11:03:18.131Z,69.1570
2024-03-24T11:04:21.149Z,71.3564
2024-03-24T11:05:24.160Z,73.0449
2024-03-24T11:06:27.180Z,74.3556
2024-03-24T11:07:30.246Z,77.4095
2024-03-24T11:08:33.269Z,79.2237
2024-03-24T11:09:36.289Z,81.5445
2024-03-24T11:10:39.346Z,82.3576
2024-03-24T11:11:42.478Z,83.6169
2024-03-24T11:12:45.609Z,84.7128
2024-03-24T11:13:48.778Z,86.7427
2024-03-24T11:14:51.880Z,86.6384
2024-03-24T11:15:54.904Z,85.9907
2024-03-24T11:16:57.408Z,85.7819
2024-03-24T11:17:59.971Z,83.9458
2024-03-24T11:19:02.420Z,84.4839
2024-03-24T11:20:04.886Z,82.9362
2024-03-24T11:21:07.347Z,80.4561
2024-03-24T11:22:09.772Z,79.1515
2024-03-24T11:23:12.292Z,80.7049
2024-03-24T11:24:14.747Z,81.1915
2024-03-24T11:25:17.350Z,78.7931
2024-03-24T11:26:19.898Z,78.4397
2024-03-24T11:27:22.926Z,79.0120
2024-03-24T11:28:23.083Z,77.6981
2024-03-24T11:29:26.177Z,79.0585
2024-03-24T11:30:29.177Z,75.4209
2024-03-24T11:31:32.167Z,73.3922
2024-03-24T11:32:35.178Z,75.2086
2024-03-24T11:33:38.220Z,73.9975
2024-03-24T11:34:41.248Z,76.1556
2024-03-24T11:35:44.340Z,77.4194
2024-03-24T11:36:47.375Z,79.0116
2024-03-24T11:37:50.445Z,77.6644
2024-03-24T11:38:53.418Z,74.0026
2024-03-24T11:39:56.495Z,72.8647
2024-03-24T11:40:59.539Z,72.1832
2024-03-24T11:42:02.592Z,70.1814
2024-03-24T11:43:05.619Z,68.0943
2024-03-24T11:44:08.645Z,68.7864
2024-03-24T11:45:11.727Z,66.8146
2024-03-24T11:46:14.717Z,65.5558
2024-03-24T11:47:17.778Z,65.2427
2024-03-24T11:48:20.829Z,65.6137
2024-03-24T11:49:23.849Z,64.2479
2024-03-24T11:50:27.239Z,62.9777
2024-03-24T11:51:30.262Z,64.1485
2024-03-24T11:52:33.366Z,65.0850
2024-03-24T11:53:36.395Z,64.1783
2024-03-24T11:54:39.420Z,63.7582
2024-03-24T11:55:42.419Z,64.9538
2024-03-24T11:56:45.465Z,62.2580
2024-03-24T11:57:48.529Z,61.3725
2024-03-24T11:58:51.540Z,63.0254
2024-03-24T11:59:54.576Z,62.2882
2024-03-24T12:00:57.628Z,63.2459
2024-03-24T12:02:00.662Z,65.1775
2024-03-24T12:03:03.747Z,62.6986
2024-03-24T12:04:06.736Z,63.6173
2024-03-24T12:05:09.748Z,64.8532
2024-03-24T12:06:12.798Z,64.5020
2024-03-24T12:07:15.898Z,67.2487
2024-03-24T12:08:18.908Z,65.3726
2024-03-24T12:09:21.921Z,66.0733
2024-03-24T12:10:24.987Z,64.4692
2024-03-24T12:11:28.027Z,64.0212
2024-03-24T12:12:31.067Z,63.9594
2024-03-24T12:13:34.116Z,62.6357
2024-03-24T12:14:37.146Z,61.0612
2024-03-24T12:15:40.171Z,62.5448
2024-03-24T12:16:43.247Z,63.3551
2024-03-24T12:17:46.287Z,63.6321
2024-03-24T12:18:49.306Z,62.0739
2024-03-24T12:19:52.372Z,61.5031
2024-03-24T12:20:55.504Z,57.8980
2024-03-24T12:21:58.570Z,56.4714
2024-03-24T12:23:01.606Z,57.9250
2024-03-24T12:24:04.826Z,56.3226
2024-03-24T12:25:07.824Z,57.4014
2024-03-24T12:26:10.834Z,60.1313
2024-03-24T12:27:13.940Z,59.1676
2024-03-24T12:28:16.985Z,57.1816
2024-03-24T12:29:20.020Z,56.5798
2024-03-24T12:30:23.074Z,54.6718
2024-03-24T12:31:26.426Z,55.4273
2024-03-24T12:32:29.461Z,55.0263
2024-03-24T12:33:32.499Z,56.6812
2024-03-24T12:34:35.540Z,58.2806
2024-03-24T12:35:38.588Z,58.3046
2024-03-24T12:36:41.618Z,60.0871
2024-03-24T12:37:44.698Z,60.1273
2024-03-24T12:38:47.719Z,60.8928
2024-03-24T12:39:50.736Z,59.9099
2024-03-24T12:40:55.245Z,61.0367